createdAt,value
2018-07-16T00:01:48.168Z,100376
2018-07-16T00:04:17.013Z,100373
2018-07-16T00:06:45.844Z,100369
2018-07-16T00:09:15.423Z,100371
2018-07-16T00:11:44.253Z,100374
2018-07-16T00:14:13.095Z,100366
2018-07-16T00:16:41.942Z,100367
2018-07-16T00:19:10.792Z,100362
2018-07-16T00:21:39.625Z,100360
2018-07-16T00:24:08.471Z,100362
2018-07-16T00:26:37.317Z,100361
2018-07-16T00:29:06.155Z,100366
2018-07-16T00:31:35.006Z,100364
2018-07-16T00:34:03.843Z,100364
2018-07-16T00:36:32.699Z,100359
2018-07-16T00:39:01.540Z,100359
2018-07-16T00:41:30.378Z,100354
2018-07-16T00:43:59.228Z,100365
2018-07-16T00:46:28.063Z,100368
2018-07-16T00:48:56.903Z,100365
2018-07-16T00:51:25.745Z,100368
2018-07-16T00:53:54.589Z,100365
2018-07-16T00:56:23.451Z,100360
2018-07-16T00:58:52.272Z,100362
2018-07-16T01:01:21.838Z,100378
2018-07-16T01:03:50.673Z,100377
2018-07-16T01:06:19.517Z,100374
2018-07-16T01:08:48.356Z,100376
2018-07-16T01:11:17.192Z,100372
2018-07-16T01:13:46.033Z,100384
2018-07-16T01:16:14.882Z,100376
2018-07-16T01:18:43.746Z,100381
2018-07-16T01:21:12.601Z,100390
2018-07-16T01:23:41.442Z,100395
2018-07-16T01:26:10.270Z,100397
2018-07-16T01:28:39.104Z,100388
2018-07-16T01:31:07.945Z,100392
2018-07-16T01:33:36.794Z,100388
2018-07-16T01:36:05.638Z,100389
2018-07-16T01:38:34.483Z,100379
2018-07-16T01:41:03.325Z,100383
2018-07-16T01:43:32.166Z,100374
2018-07-16T01:46:00.997Z,100376
2018-07-16T01:48:29.837Z,100376
2018-07-16T01:50:59.268Z,100379
2018-07-16T01:53:28.111Z,100374
2018-07-16T01:55:56.938Z,100372
2018-07-16T01:58:26.531Z,100362
2018-07-16T02:00:55.381Z,100366
2018-07-16T02:03:24.234Z,100371
2018-07-16T02:05:53.078Z,100371
2018-07-16T02:08:21.929Z,100365
2018-07-16T02:10:50.779Z,100359
2018-07-16T02:13:20.354Z,100354
2018-07-16T02:15:49.185Z,100349
2018-07-16T02:18:18.766Z,100344
2018-07-16T02:20:47.613Z,100340
2018-07-16T02:23:16.457Z,100347
2018-07-16T02:25:45.311Z,100345
2018-07-16T02:28:14.151Z,100347
2018-07-16T02:30:42.997Z,100346
2018-07-16T02:33:11.831Z,100339
2018-07-16T02:35:40.678Z,100340
2018-07-16T02:38:09.509Z,100336
2018-07-16T02:40:39.089Z,100334
2018-07-16T02:43:07.944Z,100330
2018-07-16T02:45:36.785Z,100317
2018-07-16T02:48:05.635Z,100316
2018-07-16T02:50:34.474Z,100313
2018-07-16T02:53:04.051Z,100309
2018-07-16T02:55:32.896Z,100307
2018-07-16T02:58:01.731Z,100308
2018-07-16T03:00:30.573Z,100313
2018-07-16T03:02:59.429Z,100322
2018-07-16T03:05:28.269Z,100317
2018-07-16T03:07:57.104Z,100326
2018-07-16T03:10:25.955Z,100318
2018-07-16T03:12:54.795Z,100308
2018-07-16T03:15:23.634Z,100307
2018-07-16T03:17:52.549Z,100306
2018-07-16T03:20:22.045Z,100302
2018-07-16T03:22:50.885Z,100308
2018-07-16T03:25:19.730Z,100305
2018-07-16T03:27:48.588Z,100310
2018-07-16T03:30:17.423Z,100306
2018-07-16T03:32:46.989Z,100307
2018-07-16T03:35:15.833Z,100310
2018-07-16T03:37:45.409Z,100310
2018-07-16T03:40:14.260Z,100316
2018-07-16T03:42:43.100Z,100315
2018-07-16T03:45:11.946Z,100308
2018-07-16T03:47:40.808Z,100305
2018-07-16T03:50:09.639Z,100298
2018-07-16T03:52:38.480Z,100299
2018-07-16T03:55:07.333Z,100301
2018-07-16T03:57:36.164Z,100304
2018-07-16T04:00:05.011Z,100292
2018-07-16T04:05:07.718Z,100288
2018-07-16T04:07:36.566Z,100288
2018-07-16T04:10:05.398Z,100293
2018-07-16T04:12:34.235Z,100286
2018-07-16T04:15:03.087Z,100282
2018-07-16T04:17:31.931Z,100284
2018-07-16T04:20:00.770Z,100272
2018-07-16T04:22:30.362Z,100271
2018-07-16T04:24:59.201Z,100272
2018-07-16T04:27:28.032Z,100271
2018-07-16T04:29:56.872Z,100274
2018-07-16T04:32:25.713Z,100281
2018-07-16T04:34:54.564Z,100277
2018-07-16T04:37:23.404Z,100284
2018-07-16T04:39:52.254Z,100286
2018-07-16T04:42:21.073Z,100291
2018-07-16T04:44:49.921Z,100286
2018-07-16T04:47:18.757Z,100286
2018-07-16T04:49:47.585Z,100288
2018-07-16T04:52:16.423Z,100293
2018-07-16T04:54:45.274Z,100293
2018-07-16T04:57:14.111Z,100282
2018-07-16T04:59:42.967Z,100290
2018-07-16T05:02:11.811Z,100285
2018-07-16T05:04:41.394Z,100284
2018-07-16T05:07:10.246Z,100286
2018-07-16T05:09:39.089Z,100291
2018-07-16T05:12:07.937Z,100285
2018-07-16T05:14:36.789Z,100288
2018-07-16T05:17:05.619Z,100286
2018-07-16T05:19:34.458Z,100287
2018-07-16T05:22:03.294Z,100282
2018-07-16T05:24:32.131Z,100282
2018-07-16T05:27:00.964Z,100287
2018-07-16T05:29:29.803Z,100278
2018-07-16T05:31:58.725Z,100283
2018-07-16T05:34:27.484Z,100288
2018-07-16T05:36:56.331Z,100284
2018-07-16T05:39:25.167Z,100293
2018-07-16T05:41:54.753Z,100291
2018-07-16T05:44:24.333Z,100300
2018-07-16T05:46:53.178Z,100295
2018-07-16T05:49:22.756Z,100292
2018-07-16T05:51:51.609Z,100295
2018-07-16T05:54:20.444Z,100296
2018-07-16T05:56:49.295Z,100299
2018-07-16T05:59:18.138Z,100305
2018-07-16T06:01:46.981Z,100305
2018-07-16T06:04:15.819Z,100302
2018-07-16T06:06:44.657Z,100300
2018-07-16T06:09:13.496Z,100300
2018-07-16T06:11:42.334Z,100302
2018-07-16T06:14:11.178Z,100300
2018-07-16T06:16:40.090Z,100299
2018-07-16T06:19:09.636Z,100301
2018-07-16T06:21:38.473Z,100295
2018-07-16T06:24:07.339Z,100303
2018-07-16T06:26:36.166Z,100299
2018-07-16T06:29:05.002Z,100298
2018-07-16T06:31:33.835Z,100300
2018-07-16T06:34:02.687Z,100297
2018-07-16T06:36:31.537Z,100293
2018-07-16T06:39:00.382Z,100299
2018-07-16T06:41:29.513Z,100288
2018-07-16T06:43:58.085Z,100300
2018-07-16T06:46:26.921Z,100302
2018-07-16T06:48:55.767Z,100296
2018-07-16T06:51:24.599Z,100296
2018-07-16T06:53:53.438Z,100300
2018-07-16T06:56:22.277Z,100293
2018-07-16T06:58:51.109Z,100291
2018-07-16T07:01:19.954Z,100300
2018-07-16T07:03:48.799Z,100297
2018-07-16T07:06:17.643Z,100302
2018-07-16T07:08:46.473Z,100301
2018-07-16T07:11:15.324Z,100300
2018-07-16T07:13:44.152Z,100304
2018-07-16T07:16:12.999Z,100303
2018-07-16T07:18:41.834Z,100304
2018-07-16T07:21:10.679Z,100311
2018-07-16T07:23:39.545Z,100303
2018-07-16T07:26:08.375Z,100307
2018-07-16T07:28:37.980Z,100310
2018-07-16T07:31:06.811Z,100312
2018-07-16T07:33:35.658Z,100305
2018-07-16T07:36:04.594Z,100301
2018-07-16T07:38:33.358Z,100314
2018-07-16T07:41:02.204Z,100304
2018-07-16T07:43:31.035Z,100306
2018-07-16T07:45:59.893Z,100293
2018-07-16T07:48:28.731Z,100301
2018-07-16T07:50:57.565Z,100298
2018-07-16T07:53:26.418Z,100301
2018-07-16T07:55:55.293Z,100298
2018-07-16T07:58:24.148Z,100296
2018-07-16T08:00:53.732Z,100298
2018-07-16T08:03:22.614Z,100310
2018-07-16T08:05:51.404Z,100297
2018-07-16T08:08:20.247Z,100288
2018-07-16T08:10:49.097Z,100284
2018-07-16T08:13:17.975Z,100286
2018-07-16T08:15:46.782Z,100283
2018-07-16T08:18:15.623Z,100283
2018-07-16T08:20:44.468Z,100283
2018-07-16T08:23:13.300Z,100283
2018-07-16T08:25:42.146Z,100288
2018-07-16T08:28:11.028Z,100290
2018-07-16T08:30:39.842Z,100285
2018-07-16T08:33:09.433Z,100288
2018-07-16T08:35:38.344Z,100284
2018-07-16T08:38:07.180Z,100285
2018-07-16T08:40:36.019Z,100289
2018-07-16T08:43:04.863Z,100279
2018-07-16T08:45:33.705Z,100288
2018-07-16T08:48:02.553Z,100285
2018-07-16T08:50:31.410Z,100289
2018-07-16T08:53:00.261Z,100288
2018-07-16T08:55:29.843Z,100284
2018-07-16T08:57:58.682Z,100289
2018-07-16T09:00:27.528Z,100283
2018-07-16T09:02:56.365Z,100293
2018-07-16T09:05:25.272Z,100290
2018-07-16T09:07:54.059Z,100285
2018-07-16T09:10:22.901Z,100280
2018-07-16T09:12:51.809Z,100286
2018-07-16T09:15:20.646Z,100284
2018-07-16T09:17:49.478Z,100286
2018-07-16T09:20:18.317Z,100280
2018-07-16T09:22:47.159Z,100277
2018-07-16T09:25:16.755Z,100276
2018-07-16T09:27:45.598Z,100279
2018-07-16T09:30:14.435Z,100276
2018-07-16T09:32:43.313Z,100272
2018-07-16T09:35:12.114Z,100275
2018-07-16T09:37:40.958Z,100267
2018-07-16T09:40:09.799Z,100259
2018-07-16T09:42:39.378Z,100262
2018-07-16T09:45:08.230Z,100251
2018-07-16T09:47:37.070Z,100257
2018-07-16T09:50:05.968Z,100250
2018-07-16T09:52:35.495Z,100239
2018-07-16T09:55:04.330Z,100239
2018-07-16T09:57:33.171Z,100235
2018-07-16T10:00:02.012Z,100244
2018-07-16T10:02:30.848Z,100240
2018-07-16T10:04:59.699Z,100239
2018-07-16T10:07:28.540Z,100237
2018-07-16T10:09:57.390Z,100231
2018-07-16T10:12:26.226Z,100233
2018-07-16T10:14:55.066Z,100224
2018-07-16T10:17:23.897Z,100226
2018-07-16T10:19:52.742Z,100217
2018-07-16T10:22:21.603Z,100222
2018-07-16T10:24:50.430Z,100217
2018-07-16T10:27:19.271Z,100214
2018-07-16T10:29:48.122Z,100213
2018-07-16T10:32:16.964Z,100219
2018-07-16T10:34:45.806Z,100215
2018-07-16T10:37:14.711Z,100213
2018-07-16T10:39:43.526Z,100214
2018-07-16T10:42:12.358Z,100212
2018-07-16T10:44:41.946Z,100214
2018-07-16T10:47:10.806Z,100203
2018-07-16T10:49:39.664Z,100201
2018-07-16T10:52:08.485Z,100209
2018-07-16T10:54:37.325Z,100200
2018-07-16T10:57:06.183Z,100200
2018-07-16T10:59:35.017Z,100204
2018-07-16T11:02:03.938Z,100193
2018-07-16T11:04:33.475Z,100198
2018-07-16T11:07:02.316Z,100198
2018-07-16T11:09:31.178Z,100195
2018-07-16T11:12:00.755Z,100199
2018-07-16T11:14:29.605Z,100186
2018-07-16T11:16:58.463Z,100198
2018-07-16T11:19:27.295Z,100188
2018-07-16T11:21:56.127Z,100186
2018-07-16T11:24:24.971Z,100198
2018-07-16T11:26:53.821Z,100186
2018-07-16T11:29:23.396Z,100185
2018-07-16T11:31:52.226Z,100177
2018-07-16T11:34:21.067Z,100179
2018-07-16T11:36:49.909Z,100180
2018-07-16T11:39:18.754Z,100178
2018-07-16T11:41:47.595Z,100174
2018-07-16T11:44:16.439Z,100163
2018-07-16T11:46:45.283Z,100160
2018-07-16T11:49:14.118Z,100162
2018-07-16T11:51:42.962Z,100155
2018-07-16T11:54:11.805Z,100164
2018-07-16T11:56:40.646Z,100156
2018-07-16T11:59:09.500Z,100146
2018-07-16T12:01:38.328Z,100144
2018-07-16T12:04:07.181Z,100137
2018-07-16T12:06:36.755Z,100133
2018-07-16T12:09:05.594Z,100126
2018-07-16T12:11:34.431Z,100134
2018-07-16T12:14:03.265Z,100131
2018-07-16T12:16:32.126Z,100127
2018-07-16T12:19:00.955Z,100133
2018-07-16T12:21:29.793Z,100128
2018-07-16T12:23:58.642Z,100120
2018-07-16T12:26:27.486Z,100117
2018-07-16T12:28:56.350Z,100113
2018-07-16T12:31:25.199Z,100109
2018-07-16T12:33:54.051Z,100108
2018-07-16T12:36:22.914Z,100113
2018-07-16T12:38:51.762Z,100105
2018-07-16T12:41:21.353Z,100100
2018-07-16T12:43:50.191Z,100095
2018-07-16T12:46:19.035Z,100094
2018-07-16T12:48:48.612Z,100089
2018-07-16T12:51:17.453Z,100088
2018-07-16T12:53:46.302Z,100090
2018-07-16T12:56:15.144Z,100081
2018-07-16T12:58:43.979Z,100076
2018-07-16T13:01:12.840Z,100076
2018-07-16T13:03:41.681Z,100066
2018-07-16T13:06:10.549Z,100060
2018-07-16T13:08:39.375Z,100059
2018-07-16T13:11:08.221Z,100058
2018-07-16T13:13:37.073Z,100058
2018-07-16T13:16:05.902Z,100051
2018-07-16T13:18:34.732Z,100049
2018-07-16T13:21:03.592Z,100052
2018-07-16T13:23:33.187Z,100054
2018-07-16T13:26:02.045Z,100056
2018-07-16T13:28:30.883Z,100056
2018-07-16T13:31:00.476Z,100060
2018-07-16T13:33:29.310Z,100059
2018-07-16T13:35:58.159Z,100051
2018-07-16T13:38:27.015Z,100058
2018-07-16T13:40:55.845Z,100056
2018-07-16T13:43:25.433Z,100054
2018-07-16T13:45:54.878Z,100051
2018-07-16T13:48:23.709Z,100051
2018-07-16T13:50:52.546Z,100051
2018-07-16T13:53:22.124Z,100042
2018-07-16T13:55:50.964Z,100037
2018-07-16T13:58:19.799Z,100041
2018-07-16T14:00:48.651Z,100039
2018-07-16T14:03:17.483Z,100034
2018-07-16T14:05:46.340Z,100037
2018-07-16T14:08:15.206Z,100035
2018-07-16T14:10:44.040Z,100029
2018-07-16T14:13:12.897Z,100027
2018-07-16T14:15:41.733Z,100021
2018-07-16T14:18:10.584Z,100017
2018-07-16T14:20:39.420Z,100015
2018-07-16T14:23:09.012Z,100014
2018-07-16T14:25:37.849Z,100007
2018-07-16T14:28:06.689Z,100010
2018-07-16T14:30:35.724Z,99998
2018-07-16T14:33:04.528Z,100008
2018-07-16T14:35:33.356Z,99999
2018-07-16T14:38:02.214Z,99998
2018-07-16T14:40:31.076Z,100001
2018-07-16T14:42:59.917Z,99999
2018-07-16T14:45:28.748Z,99999
2018-07-16T14:47:56.821Z,100001
2018-07-16T14:50:25.755Z,99991
2018-07-16T14:52:54.501Z,99990
2018-07-16T14:55:23.353Z,99993
2018-07-16T14:57:52.184Z,99995
2018-07-16T15:00:21.042Z,99995
2018-07-16T15:02:49.882Z,99986
2018-07-16T15:05:18.711Z,99987
2018-07-16T15:07:47.570Z,99980
2018-07-16T15:10:16.418Z,99976
2018-07-16T15:12:45.259Z,99981
2018-07-16T15:15:14.095Z,99979
2018-07-16T15:17:43.176Z,99976
2018-07-16T15:20:11.817Z,99973
2018-07-16T15:22:40.625Z,99972
2018-07-16T15:25:09.475Z,99978
2018-07-16T15:27:38.316Z,99974
2018-07-16T15:30:07.153Z,99973
2018-07-16T15:32:35.995Z,99973
2018-07-16T15:35:04.818Z,99968
2018-07-16T15:37:33.665Z,99966
2018-07-16T15:40:02.498Z,99964
2018-07-16T15:42:31.340Z,99968
2018-07-16T15:45:00.174Z,99970
2018-07-16T15:47:29.022Z,99954
2018-07-16T15:49:57.862Z,99949
2018-07-16T15:52:26.705Z,99947
2018-07-16T15:54:55.536Z,99951
2018-07-16T15:57:24.380Z,99950
2018-07-16T15:59:53.225Z,99956
2018-07-16T16:02:22.063Z,99947
2018-07-16T16:04:51.638Z,99951
2018-07-16T16:07:20.479Z,99944
2018-07-16T16:09:49.330Z,99948
2018-07-16T16:12:18.164Z,99943
2018-07-16T16:14:47.005Z,99942
2018-07-16T16:17:15.845Z,99947
2018-07-16T16:19:44.702Z,99950
2018-07-16T16:22:13.518Z,99953
2018-07-16T16:24:43.105Z,99956
2018-07-16T16:27:11.935Z,99950
2018-07-16T16:29:40.770Z,99952
2018-07-16T16:32:09.601Z,99954
2018-07-16T16:34:39.190Z,99953
2018-07-16T16:37:08.025Z,99951
2018-07-16T16:39:36.860Z,99956
2018-07-16T16:42:05.708Z,99960
2018-07-16T16:44:34.599Z,99954
2018-07-16T16:47:03.381Z,99961
2018-07-16T16:49:32.214Z,99960
2018-07-16T16:52:01.046Z,99959
2018-07-16T16:54:29.873Z,99960
2018-07-16T16:56:58.721Z,99963
2018-07-16T16:59:27.557Z,99952
2018-07-16T17:01:56.392Z,99955
2018-07-16T17:04:25.257Z,99954
2018-07-16T17:06:54.097Z,99954
2018-07-16T17:09:22.927Z,99950
2018-07-16T17:11:51.837Z,99952
2018-07-16T17:14:20.610Z,99955
2018-07-16T17:16:49.462Z,99951
2018-07-16T17:19:18.306Z,99944
2018-07-16T17:21:47.885Z,99943
2018-07-16T17:24:16.720Z,99940
2018-07-16T17:26:45.563Z,99943
2018-07-16T17:29:14.394Z,99942
2018-07-16T17:31:43.239Z,99944
2018-07-16T17:34:12.109Z,99945
2018-07-16T17:36:40.950Z,99944
2018-07-16T17:39:09.798Z,99942
2018-07-16T17:41:38.636Z,99938
2018-07-16T17:44:07.470Z,99947
2018-07-16T17:46:36.319Z,99948
2018-07-16T17:49:05.159Z,99947
2018-07-16T17:51:33.994Z,99951
2018-07-16T17:54:02.845Z,99952
2018-07-16T17:56:31.685Z,99951
2018-07-16T17:59:00.554Z,99951
2018-07-16T18:01:29.391Z,99959
2018-07-16T18:03:58.237Z,99960
2018-07-16T18:06:27.063Z,99965
2018-07-16T18:08:55.893Z,99961
2018-07-16T18:11:24.732Z,99965
2018-07-16T18:13:56.855Z,99972
2018-07-16T18:16:25.700Z,99977
2018-07-16T18:18:54.535Z,99978
2018-07-16T18:21:23.368Z,99980
2018-07-16T18:23:52.199Z,99978
2018-07-16T18:26:21.046Z,99983
2018-07-16T18:28:49.890Z,99985
2018-07-16T18:31:19.334Z,99992
2018-07-16T18:33:48.180Z,100000
2018-07-16T18:36:17.764Z,100010
2018-07-16T18:38:46.722Z,100010
2018-07-16T18:41:15.495Z,100016
2018-07-16T18:43:44.334Z,100020
2018-07-16T18:46:13.187Z,100022
2018-07-16T18:48:42.036Z,100028
2018-07-16T18:51:10.887Z,100026
2018-07-16T18:53:39.737Z,100028
2018-07-16T18:56:08.603Z,100040
2018-07-16T18:58:37.437Z,100035
2018-07-16T19:01:06.282Z,100039
2018-07-16T19:03:35.212Z,100043
2018-07-16T19:06:03.975Z,100044
2018-07-16T19:08:33.559Z,100057
2018-07-16T19:11:02.405Z,100055
2018-07-16T19:13:31.298Z,100054
2018-07-16T19:16:00.146Z,100049
2018-07-16T19:18:28.991Z,100048
2018-07-16T19:20:57.839Z,100048
2018-07-16T19:23:27.420Z,100052
2018-07-16T19:25:56.291Z,100057
2018-07-16T19:28:25.157Z,100061
2018-07-16T19:30:53.956Z,100060
2018-07-16T19:33:22.787Z,100067
2018-07-16T19:35:51.699Z,100068
2018-07-16T19:38:21.381Z,100070
2018-07-16T19:40:50.151Z,100077
2018-07-16T19:43:19.022Z,100074
2018-07-16T19:45:47.878Z,100082
2018-07-16T19:48:16.746Z,100081
2018-07-16T19:50:45.779Z,100086
2018-07-16T19:53:14.615Z,100092
2018-07-16T19:55:44.200Z,100098
2018-07-16T19:58:13.108Z,100096
2018-07-16T20:00:41.893Z,100102
2018-07-16T20:03:10.735Z,100095
2018-07-16T20:05:39.591Z,100101
2018-07-16T20:08:08.462Z,100098
2018-07-16T20:10:37.299Z,100101
2018-07-16T20:13:06.158Z,100100
2018-07-16T20:15:35.088Z,100101
2018-07-16T20:18:03.836Z,100106
2018-07-16T20:20:32.784Z,100104
2018-07-16T20:23:01.527Z,100109
2018-07-16T20:25:30.366Z,100112
2018-07-16T20:27:59.195Z,100111
2018-07-16T20:30:28.033Z,100108
2018-07-16T20:32:56.877Z,100114
2018-07-16T20:35:25.705Z,100109
2018-07-16T20:37:54.559Z,100114
2018-07-16T20:40:23.411Z,100121
2018-07-16T20:42:52.253Z,100122
2018-07-16T20:45:21.116Z,100120
2018-07-16T20:47:49.975Z,100119
2018-07-16T20:50:18.815Z,100114
2018-07-16T20:52:47.675Z,100113
2018-07-16T20:55:16.509Z,100113
2018-07-16T20:57:45.359Z,100118
2018-07-16T21:00:14.227Z,100125
2018-07-16T21:02:43.183Z,100123
2018-07-16T21:05:12.765Z,100124
2018-07-16T21:07:41.618Z,100126
2018-07-16T21:10:10.451Z,100123
2018-07-16T21:12:40.038Z,100119
2018-07-16T21:15:08.902Z,100128
2018-07-16T21:17:38.584Z,100131
2018-07-16T21:20:07.441Z,100134
2018-07-16T21:22:36.546Z,100135
2018-07-16T21:25:05.134Z,100135
2018-07-16T21:27:34.714Z,100133
2018-07-16T21:30:03.662Z,100127
2018-07-16T21:32:32.426Z,100139
2018-07-16T21:35:01.271Z,100130
2018-07-16T21:37:30.118Z,100127
2018-07-16T21:39:58.969Z,100129
2018-07-16T21:42:27.818Z,100137
2018-07-16T21:44:57.814Z,100134
2018-07-16T21:47:26.291Z,100136
2018-07-16T21:49:55.158Z,100140
2018-07-16T21:52:24.750Z,100134
2018-07-16T21:54:53.605Z,100135
2018-07-16T21:57:22.456Z,100143
2018-07-16T21:59:51.306Z,100144
2018-07-16T22:02:20.159Z,100143
2018-07-16T22:04:48.999Z,100144
2018-07-16T22:07:17.853Z,100145
2018-07-16T22:09:46.685Z,100145
2018-07-16T22:12:16.273Z,100147
2018-07-16T22:14:45.121Z,100149
2018-07-16T22:17:13.975Z,100142
2018-07-16T22:19:42.814Z,100147
2018-07-16T22:22:11.649Z,100148
2018-07-16T22:24:41.234Z,100153
2018-07-16T22:27:10.096Z,100158
2018-07-16T22:29:38.944Z,100150
2018-07-16T22:32:08.529Z,100154
2018-07-16T22:34:37.379Z,100151
2018-07-16T22:37:06.226Z,100150
2018-07-16T22:39:35.073Z,100152
2018-07-16T22:42:03.913Z,100152
2018-07-16T22:44:32.758Z,100149
2018-07-16T22:47:01.628Z,100147
2018-07-16T22:49:30.466Z,100152
2018-07-16T22:52:00.051Z,100153
2018-07-16T22:54:28.900Z,100154
2018-07-16T22:56:57.745Z,100148
2018-07-16T22:59:27.336Z,100157
2018-07-16T23:01:56.182Z,100161
2018-07-16T23:04:25.019Z,100159
2018-07-16T23:06:53.871Z,100159
2018-07-16T23:09:22.703Z,100168
2018-07-16T23:11:52.293Z,100166
2018-07-16T23:14:21.140Z,100171
2018-07-16T23:16:49.988Z,100168
2018-07-16T23:19:19.577Z,100168
2018-07-16T23:21:49.000Z,100168
2018-07-16T23:24:17.843Z,100166
2018-07-16T23:26:46.683Z,100174
2018-07-16T23:29:15.526Z,100174
2018-07-16T23:31:44.366Z,100173
2018-07-16T23:34:13.948Z,100171
2018-07-16T23:36:42.790Z,100186
2018-07-16T23:39:11.643Z,100191
2018-07-16T23:41:40.500Z,100202
2018-07-16T23:44:09.354Z,100200
2018-07-16T23:46:38.201Z,100194
2018-07-16T23:49:07.033Z,100202
2018-07-16T23:51:35.870Z,100198
2018-07-16T23:54:04.707Z,100192
2018-07-16T23:56:33.557Z,100188
2018-07-16T23:59:02.393Z,100191
